Time;durP1;ratioP1;P1;durP2;ratioP2;P2;SDS_P1;SDS_P2;PMS_P1;PMS_P2;Temp;Humidity;BMP_temperature;BMP_pressure;BME280_temperature;BME280_humidity;BME280_pressure;Samples;Min_cycle;Max_cycle;Signal;HPM_P1;HPM_P2
2023/02/28 00:00:45;;;;;;;2.22;1.05;;;2.40;3.90;;;;;;26162733;22;20018;-41
2023/02/28 00:10:46;;;;;;;1.60;0.77;;;2.60;8.00;;;;;;26154873;22;20496;-41
2023/02/28 00:20:47;;;;;;;1.77;0.70;;;2.80;10.60;;;;;;26169668;22;20432;-41
2023/02/28 00:30:49;;;;;;;2.65;1.40;;;3.10;11.50;;;;;;26174564;22;20068;-42
2023/02/28 00:40:50;;;;;;;2.03;0.93;;;3.10;10.00;;;;;;26172257;22;20007;-42
2023/02/28 00:50:52;;;;;;;10.68;1.55;;;3.20;10.20;;;;;;26168236;22;20018;-41
2023/02/28 01:00:53;;;;;;;1.13;0.52;;;3.30;9.80;;;;;;26168451;22;20238;-41
2023/02/28 01:10:54;;;;;;;1.27;0.50;;;3.30;8.80;;;;;;26145666;22;20344;-41
2023/02/28 01:20:55;;;;;;;0.90;0.45;;;3.40;7.50;;;;;;26163378;22;20033;-41
2023/02/28 01:30:56;;;;;;;3.03;0.55;;;3.50;6.30;;;;;;26140254;22;20033;-42
2023/02/28 01:40:57;;;;;;;1.20;0.45;;;3.50;7.10;;;;;;26172640;22;20015;-41
2023/02/28 01:51:05;;;;;;;3.28;0.82;;;3.50;6.90;;;;;;26177037;22;20021;-41
2023/02/28 02:01:06;;;;;;;2.13;1.10;;;3.50;6.60;;;;;;26174805;22;20078;-41
2023/02/28 02:11:11;;;;;;;16.45;1.70;;;3.50;8.50;;;;;;26171214;22;20078;-41
2023/02/28 02:21:24;;;;;;;1.75;0.57;;;3.40;11.10;;;;;;26170170;22;20014;-41
2023/02/28 02:31:44;;;;;;;1.38;0.70;;;3.50;13.30;;;;;;26176093;22;20098;-42
2023/02/28 02:41:53;;;;;;;1.52;0.60;;;3.60;13.40;;;;;;26171774;22;20356;-41
2023/02/28 02:51:56;;;;;;;1.55;0.60;;;3.60;12.90;;;;;;26161192;22;20045;-42
2023/02/28 03:02:01;;;;;;;2.08;1.20;;;3.70;13.60;;;;;;26162906;22;20025;-42
2023/02/28 03:12:06;;;;;;;0.70;0.32;;;3.80;10.90;;;;;;26118848;22;20481;-41
2023/02/28 03:22:31;;;;;;;1.60;1.05;;;3.80;10.50;;;;;;26159438;22;20021;-42
2023/02/28 03:32:42;;;;;;;1.50;0.73;;;3.80;9.90;;;;;;26170117;22;20021;-41
2023/02/28 03:42:48;;;;;;;2.13;0.90;;;3.90;9.90;;;;;;26172393;22;20015;-42
2023/02/28 03:53:04;;;;;;;2.55;0.93;;;3.90;8.80;;;;;;26176922;22;20013;-42
2023/02/28 04:03:05;;;;;;;1.98;0.98;;;3.90;6.10;;;;;;26159132;22;20014;-42
2023/02/28 04:13:06;;;;;;;5.60;2.40;;;4.00;5.20;;;;;;26155380;22;20022;-42
2023/02/28 04:23:07;;;;;;;2.55;1.17;;;3.90;5.10;;;;;;26149223;22;20006;-42
2023/02/28 04:33:08;;;;;;;4.65;1.13;;;3.90;7.30;;;;;;26153848;22;20017;-41
2023/02/28 04:43:10;;;;;;;2.70;1.67;;;3.90;4.10;;;;;;26126961;22;20015;-42
2023/02/28 04:53:11;;;;;;;3.92;1.75;;;3.90;3.20;;;;;;26152331;22;20010;-41
2023/02/28 05:03:12;;;;;;;3.30;1.42;;;3.80;3.30;;;;;;26162485;22;20010;-41
2023/02/28 05:13:13;;;;;;;4.55;1.95;;;3.80;1.00;;;;;;26164165;22;20463;-41
2023/02/28 05:23:16;;;;;;;4.10;1.33;;;3.60;1.00;;;;;;26145512;22;20102;-41
2023/02/28 05:33:17;;;;;;;2.10;0.98;;;3.50;1.00;;;;;;26160092;22;20483;-41
2023/02/28 05:43:18;;;;;;;1.75;0.80;;;3.30;1.00;;;;;;26171207;22;20347;-41
2023/02/28 05:53:19;;;;;;;3.42;1.00;;;3.10;1.00;;;;;;26172567;22;20015;-41
2023/02/28 06:03:20;;;;;;;2.33;0.95;;;3.20;1.00;;;;;;26167343;22;20388;-41
2023/02/28 06:13:21;;;;;;;3.15;1.73;;;3.10;1.00;;;;;;26168812;22;20018;-41
2023/02/28 06:23:22;;;;;;;2.80;1.40;;;3.00;1.00;;;;;;26167026;22;20019;-41
2023/02/28 06:33:23;;;;;;;3.08;1.65;;;2.80;1.00;;;;;;26161509;22;20470;-41
2023/02/28 06:43:27;;;;;;;3.42;1.10;;;2.60;1.00;;;;;;26175098;22;20010;-41
2023/02/28 06:53:28;;;;;;;4.20;2.25;;;2.20;1.00;;;;;;26152413;22;20085;-41
2023/02/28 07:03:30;;;;;;;1.75;0.90;;;2.10;9.20;;;;;;26164516;22;20021;-41
2023/02/28 07:13:31;;;;;;;3.65;1.25;;;2.00;16.50;;;;;;26171260;22;20018;-41
2023/02/28 07:23:33;;;;;;;2.55;1.40;;;2.00;24.80;;;;;;26143432;22;20014;-41
2023/02/28 07:33:35;;;;;;;3.03;1.42;;;2.00;40.90;;;;;;26159078;22;20002;-41
2023/02/28 07:43:36;;;;;;;2.92;1.27;;;2.10;64.10;;;;;;26165609;22;20003;-41
2023/02/28 07:53:37;;;;;;;5.35;2.35;;;2.10;88.00;;;;;;26171502;22;20021;-41
2023/02/28 08:03:39;;;;;;;2.97;1.67;;;2.20;99.90;;;;;;26171636;22;20015;-41
2023/02/28 08:13:43;;;;;;;2.92;1.67;;;2.30;99.90;;;;;;26173850;22;20033;-41
2023/02/28 08:23:50;;;;;;;2.38;1.38;;;2.30;99.90;;;;;;26170179;22;20379;-41
2023/02/28 08:33:52;;;;;;;2.17;1.20;;;2.50;99.90;;;;;;26167189;22;20006;-41
2023/02/28 08:43:53;;;;;;;4.10;1.98;;;2.40;99.90;;;;;;26171582;22;20033;-41
2023/02/28 08:53:57;;;;;;;2.33;1.15;;;2.50;99.90;;;;;;26175172;22;20090;-41
2023/02/28 09:03:58;;;;;;;3.38;1.50;;;2.70;99.90;;;;;;26169072;22;20018;-41
2023/02/28 09:14:00;;;;;;;4.70;1.60;;;2.90;99.90;;;;;;26166274;22;20023;-41
2023/02/28 09:24:01;;;;;;;2.50;1.20;;;3.00;99.90;;;;;;26163059;22;20029;-41
2023/02/28 09:34:04;;;;;;;3.67;1.73;;;3.00;99.90;;;;;;26173881;22;20017;-41
2023/02/28 09:44:08;;;;;;;3.50;1.80;;;3.00;85.50;;;;;;26171496;22;20339;-41
2023/02/28 09:54:19;;;;;;;12.57;2.25;;;3.10;60.50;;;;;;26173318;22;20061;-41
2023/02/28 10:04:24;;;;;;;2.67;0.93;;;3.30;50.00;;;;;;26166750;22;20524;-41
2023/02/28 10:14:29;;;;;;;2.03;1.00;;;3.30;22.20;;;;;;26160487;22;20026;-41
2023/02/28 10:24:38;;;;;;;12.90;2.03;;;3.50;1.00;;;;;;26144056;22;20015;-41
2023/02/28 10:34:40;;;;;;;2.05;0.85;;;3.80;1.00;;;;;;26154302;22;20098;-41
2023/02/28 10:44:41;;;;;;;2.63;1.17;;;4.00;1.00;;;;;;26169249;22;20018;-41
2023/02/28 10:54:42;;;;;;;1.40;0.63;;;4.40;1.00;;;;;;26163597;22;20305;-42
2023/02/28 11:04:43;;;;;;;0.75;0.43;;;4.90;1.00;;;;;;26167654;22;20019;-42
2023/02/28 11:14:59;;;;;;;1.10;0.50;;;5.20;1.00;;;;;;26171865;22;20106;-42
2023/02/28 11:25:07;;;;;;;1.15;0.50;;;5.40;1.00;;;;;;26166561;22;20010;-42
2023/02/28 11:35:11;;;;;;;1.67;0.40;;;5.80;1.00;;;;;;26175872;22;20402;-42
2023/02/28 11:45:42;;;;;;;1.48;0.88;;;7.10;1.00;;;;;;26167463;22;21443;-42
2023/02/28 11:56:00;;;;;;;2.15;0.65;;;7.90;1.00;;;;;;26142059;22;20666;-42
2023/02/28 12:06:09;;;;;;;0.82;0.40;;;8.40;1.00;;;;;;26162405;22;20177;-42
2023/02/28 12:16:25;;;;;;;1.42;0.75;;;9.20;1.00;;;;;;26166690;22;20076;-42
2023/02/28 12:26:42;;;;;;;2.53;0.43;;;9.20;1.00;;;;;;26158731;22;20014;-42
2023/02/28 12:36:45;;;;;;;5.20;1.27;;;9.70;1.00;;;;;;26165171;22;20017;-42
2023/02/28 12:46:50;;;;;;;1.75;0.95;;;9.90;1.00;;;;;;26159708;22;20325;-42
2023/02/28 12:57:21;;;;;;;0.93;0.57;;;10.20;1.00;;;;;;26129665;22;20302;-42
2023/02/28 13:07:38;;;;;;;2.15;0.60;;;10.40;1.00;;;;;;26161446;22;20011;-42
2023/02/28 13:17:41;;;;;;;1.25;0.50;;;10.30;1.00;;;;;;26157175;22;20460;-41
2023/02/28 13:27:43;;;;;;;1.25;0.68;;;11.40;1.00;;;;;;26150098;22;20520;-42
2023/02/28 13:37:49;;;;;;;7.32;1.10;;;11.50;1.00;;;;;;26161063;22;20025;-42
2023/02/28 13:47:54;;;;;;;0.60;0.22;;;11.70;1.00;;;;;;26160058;22;20484;-42
2023/02/28 13:58:29;;;;;;;0.77;0.35;;;11.80;1.00;;;;;;26156050;22;20015;-42
2023/02/28 14:08:33;;;;;;;1.33;0.50;;;12.20;1.00;;;;;;26125120;22;21528;-42
2023/02/28 14:18:49;;;;;;;0.82;0.28;;;12.20;1.00;;;;;;26159249;22;20023;-41
2023/02/28 14:29:14;;;;;;;1.80;0.77;;;12.40;1.00;;;;;;26158221;22;21179;-40
2023/02/28 14:39:21;;;;;;;0.77;0.30;;;12.50;1.00;;;;;;26158977;22;20419;-40
2023/02/28 14:49:35;;;;;;;2.33;1.00;;;12.70;1.00;;;;;;26159410;22;20019;-41
2023/02/28 14:59:36;;;;;;;1.17;0.60;;;12.10;1.00;;;;;;26161652;22;20043;-41
2023/02/28 15:09:37;;;;;;;1.02;0.55;;;11.20;1.00;;;;;;26161026;22;20011;-41
2023/02/28 15:19:42;;;;;;;1.25;0.70;;;10.10;1.00;;;;;;26160802;22;20347;-40
2023/02/28 15:29:49;;;;;;;2.08;1.23;;;9.50;1.00;;;;;;26161834;22;20358;-41
2023/02/28 15:39:50;;;;;;;0.90;0.50;;;8.70;1.00;;;;;;26166979;22;20090;-41
2023/02/28 15:49:58;;;;;;;2.13;1.08;;;8.30;1.00;;;;;;26160984;22;20015;-41
2023/02/28 16:00:05;;;;;;;2.05;0.70;;;7.60;1.00;;;;;;26161682;22;20011;-41
2023/02/28 16:10:08;;;;;;;2.47;0.67;;;7.40;1.00;;;;;;26158990;22;20118;-41
2023/02/28 16:20:22;;;;;;;2.08;0.90;;;7.40;1.00;;;;;;26155334;22;20018;-41
2023/02/28 16:30:26;;;;;;;3.03;0.90;;;7.00;1.00;;;;;;26163651;22;20424;-41
2023/02/28 16:40:30;;;;;;;2.42;1.38;;;6.60;1.00;;;;;;26163229;22;20474;-41
2023/02/28 16:50:34;;;;;;;1.85;0.85;;;6.40;1.00;;;;;;26161659;22;20021;-41
2023/02/28 17:00:35;;;;;;;1.52;0.75;;;6.20;1.00;;;;;;26162068;22;20066;-41
2023/02/28 17:10:36;;;;;;;4.93;2.70;;;6.00;1.00;;;;;;26151702;22;20066;-41
2023/02/28 17:20:38;;;;;;;2.88;1.45;;;5.90;1.00;;;;;;26094354;22;20017;-41
2023/02/28 17:30:40;;;;;;;1.90;0.90;;;5.80;1.00;;;;;;26132718;22;20019;-42
2023/02/28 17:40:41;;;;;;;3.42;1.77;;;5.70;1.00;;;;;;26156167;22;20470;-41
2023/02/28 17:50:42;;;;;;;3.08;2.15;;;5.50;1.00;;;;;;26167393;22;20563;-41
2023/02/28 18:00:44;;;;;;;3.08;1.23;;;5.40;1.00;;;;;;26165879;22;20347;-41
2023/02/28 18:10:45;;;;;;;2.15;1.13;;;5.20;1.00;;;;;;26140775;22;20013;-41
2023/02/28 18:20:49;;;;;;;2.08;1.15;;;5.00;1.00;;;;;;26096426;22;20042;-41
2023/02/28 18:30:50;;;;;;;4.57;1.88;;;4.80;1.00;;;;;;26146056;22;20387;-41
2023/02/28 18:40:54;;;;;;;3.33;1.83;;;4.80;1.00;;;;;;26140716;22;20026;-41
2023/02/28 18:50:56;;;;;;;3.22;1.58;;;4.50;1.00;;;;;;26160551;22;20025;-41
2023/02/28 19:00:57;;;;;;;9.93;3.88;;;4.40;1.00;;;;;;26149771;22;20375;-41
2023/02/28 19:10:58;;;;;;;7.32;3.45;;;4.30;1.00;;;;;;26149186;22;20019;-41
2023/02/28 19:20:59;;;;;;;7.82;3.55;;;4.20;1.00;;;;;;26161836;22;20360;-41
2023/02/28 19:31:00;;;;;;;10.68;4.85;;;4.10;1.00;;;;;;26165624;22;20023;-41
2023/02/28 19:41:04;;;;;;;11.70;4.90;;;4.00;1.00;;;;;;26161745;22;20015;-41
2023/02/28 19:51:11;;;;;;;8.50;3.38;;;3.80;1.00;;;;;;26156375;22;20025;-41
2023/02/28 20:01:15;;;;;;;4.83;1.70;;;3.80;1.00;;;;;;26150981;22;20297;-41
2023/02/28 20:11:16;;;;;;;7.28;3.53;;;3.60;1.00;;;;;;26154844;22;20011;-41
2023/02/28 20:21:18;;;;;;;5.43;2.88;;;3.50;1.00;;;;;;26151126;22;20049;-41
2023/02/28 20:31:22;;;;;;;5.22;2.38;;;3.40;1.00;;;;;;26159061;22;20373;-41
2023/02/28 20:41:23;;;;;;;3.40;2.42;;;3.20;1.00;;;;;;26156844;22;20017;-41
2023/02/28 20:51:24;;;;;;;4.60;2.35;;;3.10;1.00;;;;;;26153780;22;20021;-41
2023/02/28 21:01:28;;;;;;;3.70;1.90;;;2.90;1.00;;;;;;26148354;22;20007;-41
2023/02/28 21:11:31;;;;;;;5.90;3.20;;;3.00;1.00;;;;;;26148232;22;20531;-41
2023/02/28 21:21:43;;;;;;;8.60;2.70;;;2.80;1.00;;;;;;26163504;22;20041;-41
2023/02/28 21:31:44;;;;;;;6.13;2.72;;;2.80;1.00;;;;;;26155546;22;20443;-41
2023/02/28 21:41:46;;;;;;;5.70;3.58;;;2.80;1.00;;;;;;26162789;22;20015;-41
2023/02/28 21:51:47;;;;;;;5.38;3.13;;;2.80;1.00;;;;;;26169146;22;20014;-41
2023/02/28 22:01:53;;;;;;;8.07;3.70;;;2.70;1.00;;;;;;26162558;22;20025;-41
2023/02/28 22:11:56;;;;;;;4.47;3.50;;;2.60;1.00;;;;;;26167195;22;20029;-41
2023/02/28 22:21:57;;;;;;;4.57;2.60;;;2.30;1.00;;;;;;26162426;22;20068;-41
2023/02/28 22:31:59;;;;;;;5.22;2.92;;;2.20;1.00;;;;;;26149279;22;20034;-41
2023/02/28 22:42:01;;;;;;;5.47;3.10;;;2.00;1.00;;;;;;26153955;22;21456;-41
2023/02/28 22:52:02;;;;;;;7.50;3.58;;;1.80;1.00;;;;;;26149925;22;20343;-41
2023/02/28 23:02:03;;;;;;;6.32;3.65;;;1.60;1.00;;;;;;26146165;22;20010;-41
2023/02/28 23:12:04;;;;;;;6.82;4.00;;;1.50;1.00;;;;;;26151040;22;20109;-41
2023/02/28 23:22:05;;;;;;;9.38;4.32;;;1.40;1.00;;;;;;26135989;22;20023;-42
2023/02/28 23:32:07;;;;;;;10.15;5.00;;;1.30;1.00;;;;;;26152727;22;20036;-41
2023/02/28 23:42:08;;;;;;;6.50;3.70;;;1.20;1.00;;;;;;26156945;22;20443;-41
2023/02/28 23:52:09;;;;;;;7.63;3.97;;;1.20;3.60;;;;;;26151471;22;20037;-41
